Time;durP1;ratioP1;P1;durP2;ratioP2;P2;SDS_P1;SDS_P2;PMS_P1;PMS_P2;Temp;Humidity;BMP_temperature;BMP_pressure;BME280_temperature;BME280_humidity;BME280_pressure;Samples;Min_cycle;Max_cycle;Signal;HPM_P1;HPM_P2
2023/05/20 04:05:23;;;;;;;2.35;2.25;;;11.60;99.90;;;;;;5443736;22;21022;-67
2023/05/20 04:07:49;;;;;;;2.40;2.20;;;11.60;99.90;;;;;;4975908;28;20199;-65
2023/05/20 04:10:15;;;;;;;7.83;3.73;;;11.60;99.90;;;;;;4975906;28;20170;-65
2023/05/20 04:12:42;;;;;;;2.37;2.27;;;11.70;99.90;;;;;;4958724;28;20299;-65
2023/05/20 04:15:08;;;;;;;3.43;3.20;;;11.70;99.90;;;;;;4957921;28;20434;-67
2023/05/20 04:17:37;;;;;;;2.13;2.00;;;11.70;99.90;;;;;;4975752;28;20945;-65
2023/05/20 04:20:05;;;;;;;3.23;2.93;;;11.80;99.90;;;;;;4975776;28;20406;-66
2023/05/20 04:22:31;;;;;;;2.30;2.20;;;11.80;99.90;;;;;;4975492;28;20408;-67
2023/05/20 04:24:57;;;;;;;2.90;2.70;;;11.90;99.90;;;;;;4975135;28;20442;-66
2023/05/20 04:27:24;;;;;;;3.50;3.30;;;12.00;99.90;;;;;;4975550;28;20289;-66
2023/05/20 04:29:51;;;;;;;3.70;3.40;;;12.10;99.90;;;;;;4958415;28;20747;-67
2023/05/20 04:32:18;;;;;;;4.37;4.07;;;12.20;99.90;;;;;;4975490;28;20930;-66
2023/05/20 04:34:44;;;;;;;2.50;2.33;;;12.30;99.90;;;;;;4974052;28;20442;-66
2023/05/20 04:37:11;;;;;;;2.30;2.20;;;12.30;99.90;;;;;;4975471;28;20451;-67
2023/05/20 04:39:37;;;;;;;3.50;3.20;;;12.40;99.90;;;;;;4975400;28;20790;-67
2023/05/20 04:42:03;;;;;;;3.90;1.83;;;12.50;99.90;;;;;;4975364;28;20419;-66
2023/05/20 04:44:29;;;;;;;2.30;2.10;;;12.60;99.90;;;;;;4975184;28;20434;-67
2023/05/20 04:46:56;;;;;;;2.43;2.30;;;12.70;99.90;;;;;;4974910;28;20469;-68
2023/05/20 04:49:24;;;;;;;2.73;2.53;;;12.80;99.90;;;;;;4975132;28;20415;-65
2023/05/20 04:51:51;;;;;;;3.07;2.87;;;12.90;99.90;;;;;;4975152;28;20449;-67
2023/05/20 04:54:16;;;;;;;3.00;2.80;;;13.00;99.90;;;;;;4974646;28;20461;-66
2023/05/20 04:56:43;;;;;;;2.50;2.40;;;13.20;99.90;;;;;;4975008;28;20411;-66
2023/05/20 04:59:09;;;;;;;2.83;2.60;;;13.50;99.90;;;;;;4957545;28;20183;-67
2023/05/20 05:01:35;;;;;;;2.03;1.93;;;13.80;99.90;;;;;;4974998;28;20438;-69
2023/05/20 05:04:01;;;;;;;2.40;2.20;;;14.10;99.90;;;;;;4974552;28;20429;-66
2023/05/20 05:06:27;;;;;;;2.50;2.30;;;14.40;99.90;;;;;;4974686;28;20553;-68
2023/05/20 05:08:52;;;;;;;2.50;2.30;;;14.70;99.90;;;;;;4975109;28;20389;-67
2023/05/20 05:11:18;;;;;;;2.17;2.07;;;14.90;99.90;;;;;;4974793;28;20654;-66
2023/05/20 05:13:44;;;;;;;3.30;2.80;;;15.10;99.90;;;;;;4974414;28;20205;-68
2023/05/20 05:16:10;;;;;;;2.70;2.50;;;15.10;99.90;;;;;;4974836;28;20182;-66
2023/05/20 05:18:35;;;;;;;2.30;2.10;;;15.20;99.90;;;;;;4974637;28;20382;-66
2023/05/20 05:21:02;;;;;;;3.03;2.73;;;15.30;99.90;;;;;;4974824;28;20181;-66
2023/05/20 05:23:28;;;;;;;1.80;1.73;;;15.50;99.90;;;;;;4974334;28;20612;-66
2023/05/20 05:25:54;;;;;;;2.40;2.27;;;15.70;99.90;;;;;;4974644;28;20546;-66
2023/05/20 05:28:20;;;;;;;5.03;2.90;;;15.80;99.90;;;;;;4974650;28;20265;-68
2023/05/20 05:30:45;;;;;;;3.00;2.80;;;15.90;99.90;;;;;;4974749;28;20494;-67
2023/05/20 05:33:12;;;;;;;2.40;2.20;;;15.90;99.90;;;;;;4974496;28;20418;-66
2023/05/20 05:35:38;;;;;;;2.83;2.60;;;15.90;99.90;;;;;;4974374;28;20236;-67
2023/05/20 05:38:03;;;;;;;3.83;2.73;;;15.90;99.90;;;;;;4957131;28;20452;-66
2023/05/20 05:40:29;;;;;;;2.40;2.20;;;16.00;99.90;;;;;;4974485;28;20234;-68
2023/05/20 05:42:55;;;;;;;3.00;2.80;;;16.10;99.90;;;;;;4974645;28;20172;-66
2023/05/20 05:45:20;;;;;;;2.83;2.60;;;16.30;99.90;;;;;;4973922;28;20249;-66
2023/05/20 05:47:46;;;;;;;2.50;2.37;;;16.30;99.90;;;;;;4974706;28;20174;-66
2023/05/20 05:50:11;;;;;;;2.73;2.50;;;16.50;99.90;;;;;;4974517;28;20607;-67
2023/05/20 05:52:37;;;;;;;5.20;2.50;;;16.60;99.90;;;;;;4974341;28;20179;-65
2023/05/20 05:55:03;;;;;;;2.60;2.40;;;16.80;99.90;;;;;;4973987;28;20199;-67
2023/05/20 05:57:28;;;;;;;2.77;2.57;;;16.90;99.90;;;;;;4974341;28;20304;-67
2023/05/20 05:59:54;;;;;;;2.33;2.23;;;17.00;99.90;;;;;;4977149;28;20191;-67
2023/05/20 06:02:21;;;;;;;2.77;2.40;;;17.10;99.90;;;;;;4978212;28;20259;-65
2023/05/20 06:04:46;;;;;;;2.90;2.70;;;17.20;99.90;;;;;;4960192;28;20262;-66
2023/05/20 06:07:12;;;;;;;2.73;2.53;;;17.30;99.90;;;;;;4977885;28;20459;-65
2023/05/20 06:09:38;;;;;;;4.13;2.80;;;17.40;99.90;;;;;;4978237;28;20251;-69
2023/05/20 06:12:04;;;;;;;2.47;2.30;;;17.50;99.90;;;;;;4978277;28;20177;-67
2023/05/20 06:14:31;;;;;;;1.90;1.80;;;17.60;99.90;;;;;;4977849;28;20506;-67
2023/05/20 06:16:57;;;;;;;3.70;2.60;;;17.70;99.90;;;;;;4978025;28;20266;-65
2023/05/20 06:19:22;;;;;;;2.90;2.70;;;17.80;99.90;;;;;;4977626;28;20433;-66
2023/05/20 06:21:48;;;;;;;3.07;2.80;;;17.70;99.90;;;;;;4977640;28;20184;-67
2023/05/20 06:24:13;;;;;;;2.90;2.70;;;17.80;99.90;;;;;;4960000;28;20204;-65
2023/05/20 06:26:39;;;;;;;2.83;2.60;;;17.70;99.90;;;;;;4977665;28;20294;-68
2023/05/20 06:29:05;;;;;;;3.40;3.10;;;17.60;99.90;;;;;;4977754;28;20173;-66
2023/05/20 06:31:30;;;;;;;3.40;3.10;;;17.60;99.90;;;;;;4960415;28;20230;-68
2023/05/20 06:33:56;;;;;;;2.60;2.50;;;17.50;99.90;;;;;;4977220;28;20177;-67
2023/05/20 06:36:21;;;;;;;3.57;3.10;;;17.60;99.90;;;;;;4978010;28;20239;-67
2023/05/20 06:38:47;;;;;;;3.40;3.20;;;17.70;99.90;;;;;;4960210;28;20191;-67
2023/05/20 06:41:13;;;;;;;3.23;2.93;;;17.80;99.90;;;;;;4977602;28;20231;-66
2023/05/20 06:43:39;;;;;;;7.37;4.83;;;17.90;99.90;;;;;;4977312;28;20217;-66
2023/05/20 06:46:05;;;;;;;3.70;2.43;;;18.00;99.90;;;;;;4959799;28;20215;-66
2023/05/20 06:48:31;;;;;;;2.37;2.20;;;18.10;99.90;;;;;;4977364;28;20769;-68
2023/05/20 06:50:56;;;;;;;2.57;2.40;;;18.10;99.90;;;;;;4977863;28;20501;-66
2023/05/20 06:53:22;;;;;;;4.30;3.90;;;18.10;99.90;;;;;;4959516;28;20180;-68
2023/05/20 06:55:47;;;;;;;2.90;2.43;;;18.00;99.90;;;;;;4977096;28;20532;-65
2023/05/20 06:58:13;;;;;;;2.27;2.07;;;18.00;99.90;;;;;;4977198;28;20246;-70
2023/05/20 07:00:39;;;;;;;2.90;2.70;;;18.00;99.90;;;;;;4977278;28;20586;-68
2023/05/20 07:03:04;;;;;;;2.90;2.70;;;18.20;99.90;;;;;;4977024;28;20626;-69
2023/05/20 07:05:30;;;;;;;3.50;3.20;;;18.20;99.90;;;;;;4976627;28;20269;-65
2023/05/20 07:07:56;;;;;;;2.50;2.40;;;18.30;99.90;;;;;;4976931;28;20172;-65
2023/05/20 07:10:22;;;;;;;3.50;3.27;;;18.50;99.90;;;;;;4975561;28;20498;-68
2023/05/20 07:12:47;;;;;;;3.07;2.40;;;18.60;99.90;;;;;;4976994;28;20575;-68
2023/05/20 07:15:13;;;;;;;2.87;2.67;;;18.80;99.90;;;;;;4976451;28;20235;-67
2023/05/20 07:17:39;;;;;;;2.50;2.30;;;19.00;99.90;;;;;;4976806;28;20172;-65
2023/05/20 07:20:05;;;;;;;3.00;2.80;;;19.20;99.90;;;;;;4976933;28;20168;-67
2023/05/20 07:22:30;;;;;;;5.83;3.03;;;19.30;99.90;;;;;;4976671;28;20583;-68
2023/05/20 07:24:56;;;;;;;2.60;2.40;;;19.40;99.90;;;;;;4976263;28;20399;-69
2023/05/20 07:27:22;;;;;;;2.87;2.67;;;19.50;99.90;;;;;;4976619;28;20210;-67
2023/05/20 07:29:47;;;;;;;2.30;2.20;;;19.50;99.90;;;;;;4976737;28;20386;-69
2023/05/20 07:32:13;;;;;;;2.37;2.27;;;19.50;99.90;;;;;;4976671;28;20182;-66
2023/05/20 07:34:39;;;;;;;1.93;1.83;;;19.80;99.90;;;;;;4976096;28;20200;-69
2023/05/20 07:37:05;;;;;;;2.10;2.00;;;20.60;99.90;;;;;;4959134;28;20229;-67
2023/05/20 07:39:30;;;;;;;2.50;2.30;;;21.70;99.90;;;;;;4976368;28;20265;-68
2023/05/20 07:41:56;;;;;;;3.13;2.87;;;22.90;97.50;;;;;;4976465;28;20833;-66
2023/05/20 07:44:22;;;;;;;3.10;2.80;;;24.00;96.70;;;;;;4975926;28;20203;-66
2023/05/20 07:46:48;;;;;;;2.50;2.40;;;25.10;94.30;;;;;;4976339;28;20200;-70
2023/05/20 07:49:13;;;;;;;3.30;3.10;;;25.70;92.40;;;;;;4976024;28;20177;-65
2023/05/20 07:51:39;;;;;;;3.17;2.97;;;25.60;91.70;;;;;;4976246;28;20173;-68
2023/05/20 07:54:05;;;;;;;2.73;2.53;;;25.10;91.50;;;;;;4976039;28;20192;-64
2023/05/20 07:56:30;;;;;;;2.80;2.60;;;24.20;92.70;;;;;;4976163;28;20260;-68
2023/05/20 07:58:59;;;;;;;2.60;2.40;;;23.50;93.20;;;;;;4958755;28;20820;-68
2023/05/20 08:01:26;;;;;;;2.50;2.30;;;22.60;93.70;;;;;;4976142;28;20208;-65
2023/05/20 08:03:52;;;;;;;2.50;2.30;;;21.90;94.50;;;;;;4975597;28;20394;-65
2023/05/20 08:06:19;;;;;;;2.53;2.33;;;21.40;95.60;;;;;;4975826;28;20538;-67
2023/05/20 08:08:45;;;;;;;3.00;2.40;;;20.90;96.60;;;;;;4975927;28;20771;-67
2023/05/20 08:11:11;;;;;;;4.07;2.40;;;21.30;97.40;;;;;;4976131;28;20550;-64
2023/05/20 08:13:37;;;;;;;2.90;2.70;;;22.60;96.10;;;;;;4975633;28;20962;-68
2023/05/20 08:16:04;;;;;;;2.77;2.63;;;23.80;94.40;;;;;;4975791;28;20507;-67
2023/05/20 08:18:31;;;;;;;2.80;2.60;;;24.50;93.00;;;;;;4958403;28;20541;-66
2023/05/20 08:20:57;;;;;;;3.20;2.93;;;24.50;92.10;;;;;;4975533;28;20386;-66
2023/05/20 08:23:23;;;;;;;2.63;2.43;;;24.00;92.50;;;;;;4974904;28;20415;-65
2023/05/20 08:25:49;;;;;;;2.37;2.27;;;23.50;92.70;;;;;;4975344;28;20547;-64
2023/05/20 08:28:15;;;;;;;2.53;2.33;;;23.10;93.70;;;;;;4975511;28;20471;-66
2023/05/20 08:30:40;;;;;;;2.30;2.10;;;23.00;93.70;;;;;;4975524;28;20530;-65
2023/05/20 08:33:06;;;;;;;3.53;3.00;;;22.90;94.60;;;;;;4975345;28;20168;-68
2023/05/20 08:35:32;;;;;;;2.90;2.70;;;22.60;94.20;;;;;;4975174;28;20200;-64
2023/05/20 08:37:57;;;;;;;2.80;2.60;;;22.50;94.40;;;;;;4975269;28;20255;-66
2023/05/20 08:40:23;;;;;;;3.03;2.80;;;22.40;94.60;;;;;;4975236;28;20502;-68
2023/05/20 08:42:53;;;;;;;2.60;2.40;;;22.00;94.60;;;;;;4975376;28;20180;-69
2023/05/20 08:45:25;;;;;;;2.90;2.70;;;21.70;95.20;;;;;;4974894;28;20566;-64
2023/05/20 08:47:51;;;;;;;2.63;2.43;;;21.40;95.70;;;;;;4974301;28;20830;-67
2023/05/20 08:50:16;;;;;;;2.70;2.50;;;21.30;95.90;;;;;;4974758;28;20505;-67
2023/05/20 08:52:47;;;;;;;3.23;2.50;;;21.10;96.90;;;;;;4974821;28;20259;-65
2023/05/20 08:55:25;;;;;;;4.33;3.13;;;21.20;96.60;;;;;;4974137;28;20681;-66
2023/05/20 08:57:53;;;;;;;3.00;2.77;;;21.80;97.10;;;;;;4974998;28;20403;-69
2023/05/20 09:00:20;;;;;;;3.73;2.20;;;22.70;95.90;;;;;;4974386;28;20385;-69
2023/05/20 09:02:46;;;;;;;2.77;2.57;;;23.40;95.00;;;;;;4974269;28;20402;-65
2023/05/20 09:05:13;;;;;;;2.57;2.37;;;23.80;93.90;;;;;;4956494;28;20844;-66
2023/05/20 09:07:41;;;;;;;3.10;2.77;;;24.00;93.40;;;;;;4974123;28;20180;-67
2023/05/20 09:10:07;;;;;;;5.27;4.27;;;23.80;93.90;;;;;;4973246;28;20451;-69
2023/05/20 09:12:33;;;;;;;3.33;3.03;;;23.70;94.60;;;;;;4973758;28;20397;-67
2023/05/20 09:14:58;;;;;;;2.50;2.30;;;23.30;94.20;;;;;;4974274;28;20920;-68
2023/05/20 09:17:24;;;;;;;3.50;3.20;;;23.10;94.30;;;;;;4974770;28;20264;-64
2023/05/20 09:19:50;;;;;;;3.00;2.63;;;22.90;94.80;;;;;;4957085;28;20176;-70
2023/05/20 09:22:23;;;;;;;2.47;2.37;;;22.80;94.60;;;;;;4974126;28;20247;-64
2023/05/20 09:24:50;;;;;;;2.83;2.60;;;22.80;94.90;;;;;;4973727;28;20444;-70
2023/05/20 09:27:15;;;;;;;3.20;2.97;;;22.90;94.90;;;;;;4974386;28;20948;-68
2023/05/20 09:29:42;;;;;;;3.60;3.30;;;23.30;94.50;;;;;;4956888;28;20409;-67
2023/05/20 09:32:09;;;;;;;3.07;2.87;;;23.50;94.80;;;;;;4974289;28;20175;-67
2023/05/20 09:34:36;;;;;;;2.80;2.50;;;23.60;94.20;;;;;;4972617;28;20962;-69
2023/05/20 09:37:04;;;;;;;3.00;2.80;;;23.70;93.50;;;;;;4973981;28;20829;-66
2023/05/20 09:39:35;;;;;;;3.60;2.70;;;23.60;93.40;;;;;;4974591;28;20405;-66
2023/05/20 09:42:33;;;;;;;3.00;2.80;;;23.40;93.90;;;;;;4974515;28;20482;-65
2023/05/20 09:45:03;;;;;;;2.30;2.17;;;23.20;93.80;;;;;;4959868;28;20810;-68
2023/05/20 09:47:30;;;;;;;2.57;2.47;;;23.10;94.00;;;;;;4974545;28;20469;-67
2023/05/20 09:49:57;;;;;;;2.80;2.60;;;23.20;94.10;;;;;;4974387;28;20382;-64
2023/05/20 09:52:23;;;;;;;3.10;2.80;;;23.30;94.30;;;;;;4974055;28;20429;-67
2023/05/20 09:54:49;;;;;;;3.10;2.77;;;23.70;93.60;;;;;;4973846;28;20468;-70
2023/05/20 09:57:15;;;;;;;2.67;2.47;;;24.00;93.10;;;;;;4974405;28;20482;-67
2023/05/20 09:59:41;;;;;;;2.87;2.67;;;24.20;92.90;;;;;;4974449;28;20479;-66
2023/05/20 10:02:08;;;;;;;2.83;2.63;;;24.30;92.90;;;;;;4973808;28;20667;-65
2023/05/20 10:04:37;;;;;;;2.87;2.57;;;24.00;92.80;;;;;;4973665;28;20503;-67
2023/05/20 10:07:21;;;;;;;3.10;2.80;;;24.10;93.20;;;;;;4973784;28;20437;-64
2023/05/20 10:10:11;;;;;;;2.13;2.03;;;24.30;92.40;;;;;;4963377;28;20410;-67
2023/05/20 10:13:01;;;;;;;2.73;2.53;;;24.20;92.70;;;;;;4973966;28;20418;-66
2023/05/20 10:16:02;;;;;;;3.07;2.50;;;24.20;92.80;;;;;;4954663;28;20427;-66
2023/05/20 10:18:54;;;;;;;2.23;2.13;;;24.50;92.50;;;;;;4955077;29;20860;-66
2023/05/20 10:21:23;;;;;;;4.23;3.60;;;24.90;92.30;;;;;;4954916;29;20416;-69
2023/05/20 10:23:52;;;;;;;3.13;2.77;;;25.10;91.80;;;;;;4954360;29;20503;-69
2023/05/20 10:26:18;;;;;;;3.10;2.80;;;24.90;91.90;;;;;;4965411;28;20874;-66
2023/05/20 10:28:45;;;;;;;2.90;2.70;;;24.90;91.70;;;;;;4956628;28;20485;-66
2023/05/20 10:31:21;;;;;;;2.70;2.50;;;24.60;91.30;;;;;;4973939;28;20417;-69
2023/05/20 10:33:47;;;;;;;3.20;2.90;;;24.40;91.80;;;;;;4973489;28;20507;-64
2023/05/20 10:36:26;;;;;;;2.30;2.20;;;24.40;91.00;;;;;;4973285;28;20434;-67
2023/05/20 10:38:58;;;;;;;2.50;2.30;;;24.70;90.90;;;;;;4973490;28;20430;-66
2023/05/20 10:41:27;;;;;;;2.67;2.30;;;25.00;91.20;;;;;;4965873;28;20449;-67
2023/05/20 10:44:05;;;;;;;3.10;2.80;;;25.40;90.60;;;;;;4972988;28;20432;-67
2023/05/20 10:46:33;;;;;;;2.27;2.17;;;25.40;90.40;;;;;;4969313;28;20967;-68
2023/05/20 10:49:00;;;;;;;2.97;2.77;;;25.10;90.20;;;;;;4975708;28;20398;-64
2023/05/20 10:51:28;;;;;;;5.67;2.97;;;24.90;90.00;;;;;;4976142;28;20430;-68
2023/05/20 10:53:55;;;;;;;2.70;2.50;;;24.70;90.40;;;;;;4975955;28;20423;-64
2023/05/20 10:56:23;;;;;;;4.60;2.77;;;24.50;90.70;;;;;;4975952;28;20790;-67
2023/05/20 10:58:49;;;;;;;2.97;2.70;;;24.50;91.30;;;;;;4959330;28;20518;-64
2023/05/20 11:01:16;;;;;;;4.90;3.00;;;24.80;90.50;;;;;;4976965;28;20785;-68
2023/05/20 11:03:43;;;;;;;2.50;2.30;;;25.00;89.20;;;;;;4976769;28;20419;-66
2023/05/20 11:06:17;;;;;;;2.30;2.03;;;25.10;89.50;;;;;;4959278;28;20501;-67
2023/05/20 11:08:43;;;;;;;2.40;2.20;;;25.30;89.30;;;;;;4976998;28;20389;-68
2023/05/20 11:11:13;;;;;;;2.37;2.20;;;25.30;89.10;;;;;;4976873;28;20745;-68
2023/05/20 11:13:39;;;;;;;1.97;1.87;;;25.20;90.00;;;;;;4976641;28;20404;-66
2023/05/20 11:16:05;;;;;;;2.40;2.27;;;25.00;89.00;;;;;;4976786;28;20429;-65
2023/05/20 11:18:31;;;;;;;2.53;2.43;;;24.70;89.40;;;;;;4976735;28;20443;-66
2023/05/20 11:21:01;;;;;;;2.57;2.37;;;24.60;89.70;;;;;;4976941;28;20183;-67
2023/05/20 11:23:28;;;;;;;2.03;1.93;;;24.40;89.60;;;;;;4958956;28;20180;-67
2023/05/20 11:25:54;;;;;;;2.30;2.10;;;24.50;89.80;;;;;;4959205;28;20467;-66
2023/05/20 11:28:21;;;;;;;1.97;1.87;;;24.50;89.40;;;;;;4976991;28;20386;-69
2023/05/20 11:30:47;;;;;;;2.30;2.10;;;24.40;90.10;;;;;;4976446;28;20770;-66
2023/05/20 11:33:15;;;;;;;2.73;1.80;;;24.30;90.00;;;;;;4976235;28;20422;-68
2023/05/20 11:35:49;;;;;;;2.00;1.90;;;24.20;89.80;;;;;;4976634;28;20453;-65
2023/05/20 11:38:15;;;;;;;2.70;2.50;;;24.20;89.40;;;;;;4976489;28;20722;-70
2023/05/20 11:40:52;;;;;;;2.50;2.33;;;24.20;90.30;;;;;;4976337;28;20411;-66
2023/05/20 11:43:18;;;;;;;1.90;1.80;;;24.20;90.40;;;;;;4958608;28;21000;-68
2023/05/20 11:45:47;;;;;;;2.20;2.10;;;24.30;90.20;;;;;;4976123;28;20463;-67
2023/05/20 11:48:14;;;;;;;2.40;2.20;;;24.40;90.00;;;;;;4958817;28;20406;-68
2023/05/20 11:50:45;;;;;;;2.27;2.17;;;24.60;90.20;;;;;;4976326;28;20851;-65
2023/05/20 11:53:16;;;;;;;2.63;2.43;;;24.80;89.80;;;;;;4976342;28;20498;-67
2023/05/20 11:55:45;;;;;;;2.27;2.17;;;24.80;90.60;;;;;;4976044;28;20967;-66
2023/05/20 11:58:15;;;;;;;2.40;2.30;;;24.70;90.70;;;;;;4975406;28;20386;-67
2023/05/20 12:00:40;;;;;;;2.10;2.00;;;24.50;89.90;;;;;;4976165;28;20479;-66
2023/05/20 12:03:06;;;;;;;3.07;2.23;;;24.50;88.60;;;;;;4975801;28;20802;-66
2023/05/20 12:05:31;;;;;;;2.87;2.67;;;24.40;89.60;;;;;;4975999;28;20250;-67
2023/05/20 12:07:57;;;;;;;2.23;2.07;;;24.30;90.30;;;;;;4976257;28;20206;-68
2023/05/20 12:10:23;;;;;;;2.10;1.90;;;24.20;89.70;;;;;;4975865;28;20187;-68
2023/05/20 12:12:48;;;;;;;2.63;2.43;;;23.80;88.90;;;;;;4975885;28;20255;-68
2023/05/20 12:15:14;;;;;;;2.33;2.13;;;23.60;90.10;;;;;;4975284;28;20924;-66
2023/05/20 12:17:45;;;;;;;2.40;2.20;;;23.50;90.30;;;;;;4975809;28;20260;-66
2023/05/20 12:20:14;;;;;;;2.17;2.07;;;23.50;90.60;;;;;;4975772;28;20851;-66
2023/05/20 12:22:40;;;;;;;2.10;2.00;;;23.50;90.40;;;;;;4975552;28;20382;-66
2023/05/20 12:25:06;;;;;;;1.80;1.70;;;23.60;90.00;;;;;;4975357;28;20410;-69
2023/05/20 12:27:32;;;;;;;2.53;2.33;;;23.70;90.30;;;;;;4975747;28;20207;-66
2023/05/20 12:29:58;;;;;;;2.77;2.20;;;23.80;90.50;;;;;;4958037;28;20176;-70
2023/05/20 12:32:24;;;;;;;2.23;2.10;;;23.80;91.00;;;;;;4975019;28;20400;-69
2023/05/20 12:34:49;;;;;;;6.70;2.53;;;23.90;91.20;;;;;;4957402;28;20295;-69
2023/05/20 12:37:15;;;;;;;2.80;2.50;;;23.90;91.20;;;;;;4975288;28;20592;-67
2023/05/20 12:39:40;;;;;;;2.70;2.50;;;24.10;90.70;;;;;;4975085;28;20181;-69
2023/05/20 12:42:06;;;;;;;2.50;2.30;;;24.20;90.00;;;;;;4975221;28;20686;-66
2023/05/20 12:44:31;;;;;;;2.10;1.90;;;24.40;89.10;;;;;;4974880;28;20196;-68
2023/05/20 12:46:57;;;;;;;1.53;1.43;;;24.50;89.30;;;;;;4975020;28;20528;-69
2023/05/20 12:49:23;;;;;;;2.17;2.07;;;24.40;88.70;;;;;;4975378;28;20204;-67
2023/05/20 12:51:48;;;;;;;2.63;2.43;;;24.40;88.90;;;;;;4975334;28;20251;-69
2023/05/20 12:54:14;;;;;;;2.03;1.93;;;24.50;89.50;;;;;;4974820;28;20271;-65
2023/05/20 12:56:39;;;;;;;2.00;1.90;;;24.50;89.20;;;;;;4975343;28;20179;-66
2023/05/20 12:59:05;;;;;;;1.80;1.70;;;24.40;88.70;;;;;;4974908;28;20184;-65
2023/05/20 13:01:31;;;;;;;1.80;1.70;;;24.30;88.60;;;;;;4975059;28;20192;-68
2023/05/20 13:03:57;;;;;;;2.27;2.07;;;24.30;88.90;;;;;;4974560;28;20412;-65
2023/05/20 13:06:23;;;;;;;2.63;2.43;;;24.20;89.40;;;;;;4974679;28;20218;-69
2023/05/20 13:08:49;;;;;;;2.20;1.90;;;24.20;90.00;;;;;;4974796;28;20180;-66
2023/05/20 13:11:14;;;;;;;1.93;1.83;;;24.20;89.20;;;;;;4957570;28;20466;-66
2023/05/20 13:13:40;;;;;;;1.83;1.73;;;24.40;89.70;;;;;;4974547;28;20176;-65
2023/05/20 13:16:05;;;;;;;1.83;1.73;;;24.50;88.70;;;;;;4974649;28;20254;-67
2023/05/20 13:18:31;;;;;;;1.93;1.83;;;24.50;88.40;;;;;;4975077;28;20594;-68
2023/05/20 13:20:57;;;;;;;2.30;2.10;;;24.50;87.90;;;;;;4974968;28;20181;-66
2023/05/20 13:23:22;;;;;;;2.27;2.13;;;24.50;87.20;;;;;;4974325;28;20215;-68
2023/05/20 13:25:48;;;;;;;2.30;2.07;;;24.50;87.70;;;;;;4974401;28;20204;-65
2023/05/20 13:28:17;;;;;;;1.93;1.77;;;24.50;88.30;;;;;;4974717;28;20200;-68
2023/05/20 13:30:42;;;;;;;2.20;2.10;;;24.30;88.10;;;;;;4974703;28;20184;-65
2023/05/20 13:33:08;;;;;;;2.03;1.93;;;24.10;88.60;;;;;;4974376;28;20786;-68
2023/05/20 13:35:33;;;;;;;1.67;1.57;;;24.10;89.60;;;;;;4974389;28;20277;-65
2023/05/20 13:37:59;;;;;;;2.07;1.97;;;24.00;90.10;;;;;;4974591;28;20184;-68
2023/05/20 13:40:25;;;;;;;2.13;2.00;;;24.00;90.30;;;;;;4974452;28;20176;-67
2023/05/20 13:42:50;;;;;;;1.63;1.53;;;24.00;89.30;;;;;;4957084;28;20195;-69
2023/05/20 13:45:17;;;;;;;1.80;1.70;;;24.10;88.30;;;;;;4956849;28;20192;-66
2023/05/20 13:47:43;;;;;;;1.80;1.70;;;24.00;88.10;;;;;;4974162;28;20598;-66
2023/05/20 13:50:09;;;;;;;2.40;2.20;;;24.00;87.10;;;;;;4974708;28;20551;-68
2023/05/20 13:52:35;;;;;;;1.97;1.83;;;24.10;88.80;;;;;;4974498;28;20512;-67
2023/05/20 13:55:00;;;;;;;2.90;2.70;;;24.20;88.80;;;;;;4974052;28;20434;-67
2023/05/20 13:57:26;;;;;;;2.27;2.07;;;24.30;88.10;;;;;;4974410;28;20187;-65
2023/05/20 13:59:52;;;;;;;2.27;2.17;;;24.30;88.20;;;;;;4974359;28;20595;-69
2023/05/20 14:02:17;;;;;;;2.27;2.00;;;24.30;88.40;;;;;;4974903;28;20512;-65
2023/05/20 14:04:45;;;;;;;1.77;1.67;;;24.40;87.80;;;;;;4973965;28;20196;-68
2023/05/20 14:07:11;;;;;;;2.27;2.17;;;24.40;88.20;;;;;;4974073;28;20200;-65
2023/05/20 14:09:37;;;;;;;2.33;2.13;;;24.40;89.30;;;;;;4974240;28;20407;-66
2023/05/20 14:12:04;;;;;;;1.93;1.83;;;24.40;89.40;;;;;;4974254;28;20419;-69
2023/05/20 14:14:29;;;;;;;2.30;2.17;;;24.30;88.70;;;;;;4974718;28;20295;-66
2023/05/20 14:16:55;;;;;;;2.10;1.83;;;24.10;88.30;;;;;;4974876;28;20416;-68
2023/05/20 14:19:20;;;;;;;3.40;2.07;;;24.00;90.00;;;;;;4975048;28;20523;-66
2023/05/20 14:21:46;;;;;;;1.80;1.70;;;24.10;89.80;;;;;;4978499;28;20177;-66
2023/05/20 14:24:11;;;;;;;2.00;1.90;;;24.30;89.40;;;;;;4978613;28;20655;-69
2023/05/20 14:26:37;;;;;;;1.70;1.60;;;24.40;89.10;;;;;;4978776;28;20200;-67
2023/05/20 14:29:03;;;;;;;1.60;1.50;;;24.50;87.20;;;;;;4978736;28;20172;-65
2023/05/20 14:31:29;;;;;;;1.97;1.90;;;24.40;87.20;;;;;;4977836;28;20404;-65
2023/05/20 14:33:54;;;;;;;1.87;1.77;;;24.30;87.00;;;;;;4977757;28;20188;-66
2023/05/20 14:36:20;;;;;;;1.83;1.73;;;24.20;87.60;;;;;;4977735;28;20184;-67
2023/05/20 14:38:45;;;;;;;2.00;1.50;;;24.10;88.20;;;;;;4977775;28;20177;-68
2023/05/20 14:41:11;;;;;;;2.20;2.00;;;24.00;88.30;;;;;;4977714;28;20172;-68
2023/05/20 14:43:37;;;;;;;2.33;2.23;;;23.90;88.10;;;;;;4959582;28;20207;-66
2023/05/20 14:46:03;;;;;;;2.27;2.17;;;23.80;88.50;;;;;;4959996;28;20618;-68
2023/05/20 14:48:28;;;;;;;2.10;2.00;;;23.80;88.90;;;;;;4977348;28;20173;-69
2023/05/20 14:50:54;;;;;;;2.20;2.00;;;23.70;89.60;;;;;;4977513;28;20436;-69
2023/05/20 14:53:21;;;;;;;2.00;1.90;;;23.60;90.10;;;;;;4977047;28;20175;-67
2023/05/20 14:55:46;;;;;;;1.73;1.47;;;23.60;89.90;;;;;;4977389;28;20204;-65
2023/05/20 14:58:12;;;;;;;2.10;2.00;;;23.50;89.60;;;;;;4977351;28;20404;-68
2023/05/20 15:00:38;;;;;;;1.50;1.40;;;23.50;90.00;;;;;;4977222;28;20180;-65
2023/05/20 15:03:03;;;;;;;2.43;2.23;;;23.50;90.50;;;;;;4977148;28;20172;-69
2023/05/20 15:05:29;;;;;;;2.07;1.87;;;23.60;90.40;;;;;;4976676;28;20200;-65
2023/05/20 15:07:55;;;;;;;1.90;1.80;;;23.60;89.60;;;;;;4977056;28;20171;-69
2023/05/20 15:10:21;;;;;;;1.77;1.67;;;23.60;89.20;;;;;;4976978;28;20486;-69
2023/05/20 15:12:46;;;;;;;1.60;1.50;;;23.60;89.50;;;;;;4977079;28;20445;-68
2023/05/20 15:15:12;;;;;;;2.20;2.07;;;23.60;90.00;;;;;;4976525;28;20195;-66
2023/05/20 15:17:38;;;;;;;2.43;2.23;;;23.60;90.00;;;;;;4977080;28;20178;-68
2023/05/20 15:20:04;;;;;;;1.57;1.47;;;23.60;90.30;;;;;;4977038;28;20179;-69
2023/05/20 15:22:29;;;;;;;2.53;1.90;;;23.60;90.30;;;;;;4959488;28;20582;-66
2023/05/20 15:24:55;;;;;;;2.13;1.80;;;23.60;90.00;;;;;;4976576;28;20463;-69
2023/05/20 15:27:20;;;;;;;2.60;1.90;;;23.50;89.80;;;;;;4959384;28;20199;-66
2023/05/20 15:29:47;;;;;;;2.57;2.37;;;23.50;89.70;;;;;;4976464;28;20172;-66
2023/05/20 15:32:13;;;;;;;1.93;1.83;;;23.50;90.20;;;;;;4958043;28;20200;-65
2023/05/20 15:34:38;;;;;;;2.00;1.50;;;23.40;89.90;;;;;;4976279;28;20395;-68
2023/05/20 15:37:04;;;;;;;1.40;1.30;;;23.50;90.20;;;;;;4976557;28;20621;-65
2023/05/20 15:39:30;;;;;;;1.73;1.63;;;23.50;90.10;;;;;;4976602;28;20578;-69
2023/05/20 15:41:58;;;;;;;1.57;1.47;;;23.50;90.30;;;;;;4976507;28;20473;-67
2023/05/20 15:44:24;;;;;;;2.00;1.87;;;23.50;90.20;;;;;;4976017;28;20192;-69
2023/05/20 15:46:49;;;;;;;2.00;1.83;;;23.50;90.20;;;;;;4976081;28;20456;-68
2023/05/20 15:49:15;;;;;;;1.60;1.50;;;23.50;90.00;;;;;;4976237;28;20172;-65
2023/05/20 15:51:40;;;;;;;1.70;1.60;;;23.50;89.90;;;;;;4976283;28;20176;-68
2023/05/20 15:54:06;;;;;;;2.03;1.80;;;23.50;89.80;;;;;;4975881;28;20190;-65
2023/05/20 15:56:32;;;;;;;2.00;1.90;;;23.60;90.40;;;;;;4976237;28;20180;-66
2023/05/20 15:58:58;;;;;;;2.30;2.10;;;23.60;90.40;;;;;;4975926;28;20407;-66
2023/05/20 16:01:25;;;;;;;1.87;1.77;;;23.60;90.10;;;;;;4976170;28;20628;-67
2023/05/20 16:03:51;;;;;;;2.10;2.00;;;23.70;90.10;;;;;;4975618;28;20165;-70
2023/05/20 16:06:16;;;;;;;1.60;1.50;;;23.70;90.50;;;;;;4975708;28;20471;-66
2023/05/20 16:08:42;;;;;;;2.03;1.93;;;23.80;90.20;;;;;;4976135;28;20527;-67
2023/05/20 16:11:08;;;;;;;2.10;1.90;;;23.80;90.00;;;;;;4976079;28;20676;-67
2023/05/20 16:13:34;;;;;;;1.90;1.80;;;23.80;89.80;;;;;;4975619;28;20604;-66
2023/05/20 16:16:00;;;;;;;1.97;1.63;;;23.90;90.10;;;;;;4975751;28;20481;-67
2023/05/20 16:18:29;;;;;;;2.10;2.00;;;23.90;90.00;;;;;;4975752;28;20434;-66
2023/05/20 16:20:56;;;;;;;2.07;1.93;;;24.00;89.90;;;;;;4975824;28;20758;-68
2023/05/20 16:23:22;;;;;;;1.77;1.67;;;24.00;90.10;;;;;;4975542;28;20415;-68
2023/05/20 16:25:48;;;;;;;2.60;2.20;;;24.10;90.30;;;;;;4975581;28;20798;-67
2023/05/20 16:28:13;;;;;;;2.20;2.00;;;24.10;90.10;;;;;;4975716;28;20400;-67
2023/05/20 16:30:39;;;;;;;2.10;1.90;;;24.10;89.70;;;;;;4975513;28;20168;-69
2023/05/20 16:33:05;;;;;;;2.87;2.67;;;24.20;89.90;;;;;;4975314;28;20256;-68
2023/05/20 16:35:31;;;;;;;2.43;2.07;;;24.20;89.80;;;;;;4975383;28;20191;-66
2023/05/20 16:37:57;;;;;;;2.00;1.90;;;24.20;90.00;;;;;;4975585;28;20418;-70
2023/05/20 16:40:22;;;;;;;1.70;1.60;;;24.10;90.30;;;;;;4975323;28;20177;-66
2023/05/20 16:42:48;;;;;;;2.07;1.87;;;24.10;90.40;;;;;;4974900;28;20378;-69
2023/05/20 16:45:13;;;;;;;2.10;2.00;;;24.20;90.40;;;;;;4974898;28;20198;-67
2023/05/20 16:47:39;;;;;;;3.27;3.07;;;24.10;90.70;;;;;;4975149;28;20203;-67
2023/05/20 16:50:05;;;;;;;2.70;2.50;;;24.10;90.70;;;;;;4975405;28;20651;-66